Buckley Air Force Base Aurora US
ICAO: KBKF
IATA: BFK
Category: Medium
Scheduled Services: No

Elevation: 5662 ft
TransAlt. 18000 ft.

Airport Communications:
DENVER APP/DEP:128.45
ATIS:119.675
GND/CLNC DEL:121.6
PMSV METRO:22.845
PTD:37.22
TWR:121

KBKF Zoom In..

Runways:

(A) RW 14 length 11006 ft width 150 ft
---- / hdg 140

(B) RW 32 length 11006 ft width 150 ft
ILS 109.70 / hdg 320

Location; KBKF
Day. 14 / Time. 13.58 Zulu
* Altimeter: 30.17
* Temperature: 17° c. 62.6°f.
* Wind from: 310° Speed 07 kn.
Dewpoint: 16° c.
Visibility: 7 Statute Miles.
Clouds: Broken 600 ft.
Clouds: Broken 22000 ft.

KBKF 141358Z 31007KT 7SM BKN006 BKN220 17/16 A3017 RMK AO2A SLP143 T01660155


Wind From 310°
Speed 07 kn.

 
 
jpsmedia.com for Web Design worldairports.se 2018   terms of use